createdAt,value
2022-10-04T00:56:56.219Z,751
2022-10-04T01:16:56.273Z,750
2022-10-04T01:36:56.337Z,747
2022-10-04T01:56:56.379Z,745
2022-10-04T02:17:04.428Z,745
2022-10-04T02:56:56.559Z,743
2022-10-04T03:16:56.597Z,744
2022-10-04T03:37:04.645Z,744
2022-10-04T03:56:56.712Z,749
2022-10-04T04:16:56.749Z,748
2022-10-04T04:37:12.815Z,746
2022-10-04T04:56:56.860Z,744
2022-10-04T05:17:04.962Z,744
2022-10-04T05:56:57.038Z,744
2022-10-04T06:16:57.083Z,745
2022-10-04T06:36:57.167Z,754
2022-10-04T06:56:57.180Z,752
2022-10-04T07:16:57.247Z,752
2022-10-04T07:36:57.309Z,757
2022-10-04T07:56:57.374Z,760
2022-10-04T08:17:05.451Z,759
2022-10-04T08:36:57.466Z,753
2022-10-04T08:57:05.528Z,752
2022-10-04T09:16:57.560Z,754
2022-10-04T09:37:13.614Z,755
2022-10-04T09:56:57.660Z,751
2022-10-04T10:17:05.714Z,751
2022-10-04T10:56:57.807Z,750
2022-10-04T11:17:05.853Z,749
2022-10-04T11:36:57.899Z,744
2022-10-04T11:56:57.935Z,747
2022-10-04T12:36:58.028Z,748
2022-10-04T12:56:58.087Z,747
2022-10-04T13:17:34.335Z,747
2022-10-04T13:36:58.169Z,745
2022-10-04T13:56:58.234Z,746
2022-10-04T14:16:58.369Z,742
2022-10-04T14:36:58.316Z,741
2022-10-04T14:56:58.354Z,752
2022-10-04T15:16:58.395Z,764
2022-10-04T15:36:58.444Z,769
2022-10-04T15:56:58.503Z,772
2022-10-04T16:16:58.543Z,776
2022-10-04T16:36:58.592Z,778
2022-10-04T16:56:58.632Z,779
2022-10-04T17:16:58.710Z,778
2022-10-04T17:36:58.737Z,783
2022-10-04T17:56:58.799Z,790
2022-10-04T18:16:58.834Z,789
2022-10-04T18:36:58.872Z,790
2022-10-04T18:56:58.912Z,789
2022-10-04T19:16:59.001Z,790
2022-10-04T19:36:59.044Z,790
2022-10-04T19:56:59.085Z,789
2022-10-04T20:16:59.127Z,790
2022-10-04T20:36:59.192Z,794
2022-10-04T20:56:59.224Z,798
2022-10-04T21:17:02.564Z,795
2022-10-04T21:36:59.341Z,796
2022-10-04T21:56:59.411Z,794
2022-10-04T22:36:59.486Z,794
2022-10-04T22:56:59.544Z,794
2022-10-04T23:16:59.600Z,792
2022-10-04T23:36:59.639Z,798
2022-10-04T23:56:59.700Z,798
